createdAt,value
2023-03-16T00:00:01.928Z,2.67
2023-03-16T00:02:29.602Z,2.72
2023-03-16T00:04:57.220Z,3.13
2023-03-16T00:07:26.887Z,2.60
2023-03-16T00:09:57.096Z,2.50
2023-03-16T00:12:26.241Z,2.17
2023-03-16T00:14:54.196Z,2.42
2023-03-16T00:17:22.357Z,2.60
2023-03-16T00:19:55.778Z,2.38
2023-03-16T00:22:24.692Z,1.90
2023-03-16T00:24:55.925Z,1.88
2023-03-16T00:27:24.124Z,2.13
2023-03-16T00:29:56.016Z,2.03
2023-03-16T00:32:25.467Z,2.80
2023-03-16T00:34:53.108Z,2.42
2023-03-16T00:37:23.776Z,1.10
2023-03-16T00:39:51.925Z,1.88
2023-03-16T00:42:21.243Z,1.57
2023-03-16T00:44:48.786Z,1.30
2023-03-16T00:47:16.537Z,1.95
2023-03-16T00:49:49.686Z,1.70
2023-03-16T00:52:17.252Z,1.23
2023-03-16T00:54:48.320Z,1.33
2023-03-16T00:57:18.816Z,1.33
2023-03-16T00:59:48.255Z,1.00
2023-03-16T01:02:16.795Z,1.40
2023-03-16T01:04:44.617Z,1.80
2023-03-16T01:07:13.280Z,1.60
2023-03-16T01:09:41.154Z,1.23
2023-03-16T01:12:10.335Z,1.48
2023-03-16T01:14:38.043Z,1.48
2023-03-16T01:17:08.730Z,1.50
2023-03-16T01:19:37.058Z,1.70
2023-03-16T01:22:05.503Z,1.40
2023-03-16T01:24:34.702Z,1.95
2023-03-16T01:27:03.813Z,2.10
2023-03-16T01:29:31.564Z,1.00
2023-03-16T01:31:59.202Z,1.73
2023-03-16T01:34:28.670Z,1.35
2023-03-16T01:36:56.342Z,1.67
2023-03-16T01:39:24.012Z,1.20
2023-03-16T01:41:51.696Z,1.20
2023-03-16T01:44:20.219Z,1.33
2023-03-16T01:46:47.794Z,1.90
2023-03-16T01:49:16.469Z,2.13
2023-03-16T01:51:47.463Z,1.58
2023-03-16T01:54:18.670Z,1.38
2023-03-16T01:56:49.642Z,1.07
2023-03-16T01:59:18.808Z,1.98
2023-03-16T02:01:47.851Z,1.75
2023-03-16T02:04:23.074Z,1.58
2023-03-16T02:06:54.794Z,1.63
2023-03-16T02:09:23.325Z,1.67
2023-03-16T02:11:51.167Z,1.08
2023-03-16T02:14:18.829Z,1.50
2023-03-16T02:16:47.556Z,1.52
2023-03-16T02:19:18.052Z,1.30
2023-03-16T02:21:50.277Z,1.23
2023-03-16T02:24:19.279Z,1.88
2023-03-16T02:26:49.623Z,1.48
2023-03-16T02:29:25.649Z,1.40
2023-03-16T02:31:55.492Z,1.23
2023-03-16T02:34:23.652Z,1.23
2023-03-16T02:36:53.137Z,1.67
2023-03-16T02:39:20.854Z,1.98
2023-03-16T02:41:48.424Z,1.50
2023-03-16T02:44:17.097Z,1.52
2023-03-16T02:46:45.021Z,1.20
2023-03-16T02:49:17.282Z,0.88
2023-03-16T02:51:45.326Z,1.23
2023-03-16T02:54:12.866Z,1.38
2023-03-16T02:56:40.538Z,1.40
2023-03-16T02:59:08.286Z,1.23
2023-03-16T03:01:36.600Z,0.90
2023-03-16T03:04:04.551Z,1.50
2023-03-16T03:06:33.519Z,1.17
2023-03-16T03:09:02.123Z,1.13
2023-03-16T03:11:29.723Z,0.83
2023-03-16T03:13:57.821Z,1.13
2023-03-16T03:16:25.493Z,0.80
2023-03-16T03:18:53.759Z,1.60
2023-03-16T03:21:21.837Z,0.85
2023-03-16T03:23:50.978Z,1.03
2023-03-16T03:26:18.933Z,1.63
2023-03-16T03:28:46.940Z,1.42
2023-03-16T03:31:14.986Z,1.05
2023-03-16T03:33:42.547Z,1.63
2023-03-16T03:36:11.334Z,1.43
2023-03-16T03:38:39.278Z,0.98
2023-03-16T03:43:56.150Z,1.30
2023-03-16T03:46:23.721Z,0.95
2023-03-16T03:48:52.375Z,1.80
2023-03-16T03:51:20.067Z,1.00
2023-03-16T03:53:47.562Z,1.60
2023-03-16T03:56:16.441Z,0.63
2023-03-16T03:58:44.164Z,1.08
2023-03-16T04:01:11.756Z,0.90
2023-03-16T04:03:39.290Z,1.27
2023-03-16T04:06:08.218Z,0.82
2023-03-16T04:08:35.771Z,0.80
2023-03-16T04:11:03.290Z,0.70
2023-03-16T04:13:32.579Z,1.07
2023-03-16T04:16:02.684Z,1.50
2023-03-16T04:18:30.231Z,1.08
2023-03-16T04:20:57.805Z,1.00
2023-03-16T04:23:25.942Z,1.10
2023-03-16T04:25:54.796Z,0.60
2023-03-16T04:28:22.404Z,1.00
2023-03-16T04:30:51.303Z,1.00
2023-03-16T04:33:18.836Z,1.05
2023-03-16T04:35:46.741Z,1.10
2023-03-16T04:38:14.757Z,1.10
2023-03-16T04:40:42.300Z,1.50
2023-03-16T04:43:09.865Z,1.40
2023-03-16T04:45:37.439Z,1.10
2023-03-16T04:48:07.095Z,1.00
2023-03-16T04:50:36.126Z,1.10
2023-03-16T04:53:06.636Z,0.90
2023-03-16T04:55:35.427Z,1.30
2023-03-16T04:58:03.059Z,1.23
2023-03-16T05:00:35.639Z,0.70
2023-03-16T05:03:04.454Z,1.17
2023-03-16T05:05:35.052Z,0.93
2023-03-16T05:08:08.494Z,0.90
2023-03-16T05:10:36.136Z,1.00
2023-03-16T05:13:03.798Z,0.90
2023-03-16T05:15:31.743Z,1.20
2023-03-16T05:17:59.326Z,1.90
2023-03-16T05:20:27.169Z,0.65
2023-03-16T05:22:56.419Z,0.85
2023-03-16T05:25:23.998Z,0.80
2023-03-16T05:27:53.888Z,0.73
2023-03-16T05:30:24.927Z,0.80
2023-03-16T05:32:54.787Z,1.08
2023-03-16T05:35:24.168Z,0.80
2023-03-16T05:37:51.984Z,0.80
2023-03-16T05:40:23.089Z,0.70
2023-03-16T05:42:55.053Z,0.80
2023-03-16T05:45:22.530Z,1.00
2023-03-16T05:47:50.159Z,1.10
2023-03-16T05:50:18.080Z,0.68
2023-03-16T05:52:46.036Z,0.83
2023-03-16T05:55:14.606Z,0.70
2023-03-16T05:57:45.442Z,0.57
2023-03-16T06:00:15.798Z,1.13
2023-03-16T06:02:43.743Z,0.75
2023-03-16T06:05:11.969Z,1.10
2023-03-16T06:07:39.660Z,0.85
2023-03-16T06:10:08.237Z,1.10
2023-03-16T06:12:35.875Z,0.70
2023-03-16T06:15:07.290Z,0.57
2023-03-16T06:17:35.492Z,0.37
2023-03-16T06:20:09.822Z,1.20
2023-03-16T06:22:37.507Z,0.90
2023-03-16T06:25:05.494Z,0.55
2023-03-16T06:27:33.406Z,0.70
2023-03-16T06:30:01.531Z,0.50
2023-03-16T06:32:30.451Z,0.80
2023-03-16T06:34:59.610Z,0.77
2023-03-16T06:37:28.936Z,0.82
2023-03-16T06:39:56.544Z,0.63
2023-03-16T06:42:24.453Z,1.00
2023-03-16T06:44:53.207Z,0.90
2023-03-16T06:47:21.868Z,1.02
2023-03-16T06:49:51.968Z,0.95
2023-03-16T06:52:19.558Z,0.90
2023-03-16T06:54:47.043Z,0.60
2023-03-16T06:57:15.168Z,0.85
2023-03-16T06:59:42.746Z,1.20
2023-03-16T07:02:12.018Z,0.93
2023-03-16T07:04:39.660Z,0.68
2023-03-16T07:07:08.934Z,0.50
2023-03-16T07:09:39.170Z,0.90
2023-03-16T07:12:08.650Z,0.40
2023-03-16T07:14:36.621Z,0.80
2023-03-16T07:17:04.343Z,1.08
2023-03-16T07:19:31.912Z,0.63
2023-03-16T07:21:59.626Z,0.77
2023-03-16T07:24:28.484Z,1.05
2023-03-16T07:26:56.145Z,0.80
2023-03-16T07:29:27.731Z,1.05
2023-03-16T07:31:55.533Z,0.87
2023-03-16T07:34:23.221Z,0.70
2023-03-16T07:36:52.706Z,1.00
2023-03-16T07:39:20.221Z,0.40
2023-03-16T07:41:49.181Z,1.00
2023-03-16T07:44:16.863Z,0.73
2023-03-16T07:46:44.448Z,0.80
2023-03-16T07:49:12.456Z,0.80
2023-03-16T07:51:41.077Z,0.70
2023-03-16T07:54:08.813Z,0.43
2023-03-16T07:56:48.209Z,0.40
2023-03-16T07:59:20.392Z,0.77
2023-03-16T08:01:48.960Z,0.65
2023-03-16T08:04:16.583Z,0.45
2023-03-16T08:06:44.115Z,0.68
2023-03-16T08:09:11.958Z,0.70
2023-03-16T08:11:39.977Z,0.82
2023-03-16T08:14:07.993Z,0.95
2023-03-16T08:16:38.468Z,0.28
2023-03-16T08:19:07.082Z,0.60
2023-03-16T08:21:45.784Z,0.97
2023-03-16T08:24:23.995Z,0.77
2023-03-16T08:26:51.561Z,0.70
2023-03-16T08:29:19.406Z,0.50
2023-03-16T08:31:48.665Z,1.10
2023-03-16T08:34:22.862Z,0.90
2023-03-16T08:36:50.489Z,0.60
2023-03-16T08:39:18.020Z,0.57
2023-03-16T08:41:45.901Z,1.25
2023-03-16T08:44:13.868Z,0.65
2023-03-16T08:46:42.385Z,0.60
2023-03-16T08:49:12.969Z,0.70
2023-03-16T08:51:40.712Z,0.30
2023-03-16T08:54:08.504Z,0.60
2023-03-16T08:56:36.023Z,0.95
2023-03-16T08:59:03.918Z,0.60
2023-03-16T09:01:32.025Z,1.20
2023-03-16T09:04:00.577Z,0.80
2023-03-16T09:06:29.658Z,0.50
2023-03-16T09:08:57.441Z,0.98
2023-03-16T09:11:28.385Z,0.60
2023-03-16T09:13:56.053Z,0.70
2023-03-16T09:16:25.639Z,0.68
2023-03-16T09:18:53.519Z,0.45
2023-03-16T09:21:26.047Z,0.80
2023-03-16T09:23:56.211Z,0.60
2023-03-16T09:26:23.837Z,0.50
2023-03-16T09:28:51.533Z,0.77
2023-03-16T09:31:20.394Z,0.90
2023-03-16T09:33:48.335Z,0.60
2023-03-16T09:36:16.696Z,0.85
2023-03-16T09:38:44.684Z,0.80
2023-03-16T09:41:23.810Z,0.88
2023-03-16T09:43:59.450Z,1.10
2023-03-16T09:46:28.794Z,0.70
2023-03-16T09:48:57.870Z,1.20
2023-03-16T09:51:33.345Z,0.90
2023-03-16T09:54:03.311Z,0.75
2023-03-16T09:56:35.437Z,0.60
2023-03-16T09:59:07.585Z,0.50
2023-03-16T10:01:41.723Z,0.50
2023-03-16T10:04:21.935Z,0.60
2023-03-16T10:06:55.262Z,0.50
2023-03-16T10:09:29.419Z,0.80
2023-03-16T10:12:00.021Z,0.68
2023-03-16T10:14:31.396Z,1.08
2023-03-16T10:17:03.272Z,0.47
2023-03-16T10:19:35.059Z,0.60
2023-03-16T10:22:09.614Z,0.57
2023-03-16T10:24:42.817Z,0.77
2023-03-16T10:27:17.556Z,0.43
2023-03-16T10:29:45.187Z,0.73
2023-03-16T10:32:14.877Z,0.60
2023-03-16T10:34:43.069Z,0.67
2023-03-16T10:37:13.691Z,0.77
2023-03-16T10:39:43.013Z,0.73
2023-03-16T10:42:17.817Z,0.57
2023-03-16T10:44:46.064Z,0.88
2023-03-16T10:47:19.930Z,0.73
2023-03-16T10:49:49.071Z,0.80
2023-03-16T10:52:19.741Z,0.57
2023-03-16T10:54:50.174Z,0.60
2023-03-16T10:57:25.344Z,0.60
2023-03-16T10:59:53.923Z,0.90
2023-03-16T11:02:23.603Z,0.80
2023-03-16T11:04:51.279Z,0.95
2023-03-16T11:07:19.654Z,0.50
2023-03-16T11:09:47.897Z,0.75
2023-03-16T11:12:17.230Z,1.03
2023-03-16T11:14:46.760Z,0.98
2023-03-16T11:17:16.090Z,0.77
2023-03-16T11:19:48.548Z,1.05
2023-03-16T11:22:19.036Z,1.13
2023-03-16T11:24:47.747Z,0.90
2023-03-16T11:27:20.053Z,0.70
2023-03-16T11:29:55.941Z,0.80
2023-03-16T11:32:27.189Z,0.60
2023-03-16T11:34:54.883Z,0.32
2023-03-16T11:37:30.216Z,0.93
2023-03-16T11:40:09.259Z,1.40
2023-03-16T11:42:39.644Z,0.40
2023-03-16T11:45:16.296Z,0.80
2023-03-16T11:47:58.224Z,0.70
2023-03-16T11:50:29.451Z,0.53
2023-03-16T11:53:01.044Z,1.17
2023-03-16T11:55:32.382Z,1.00
2023-03-16T11:58:06.042Z,1.10
2023-03-16T12:00:40.355Z,0.85
2023-03-16T12:03:25.347Z,1.43
2023-03-16T12:05:57.463Z,0.50
2023-03-16T12:08:32.243Z,0.80
2023-03-16T12:11:02.346Z,0.70
2023-03-16T12:13:41.530Z,0.52
2023-03-16T12:16:13.571Z,0.60
2023-03-16T12:18:44.992Z,0.90
2023-03-16T12:21:14.912Z,0.35
2023-03-16T12:23:45.236Z,0.70
2023-03-16T12:26:15.202Z,0.60
2023-03-16T12:28:43.840Z,1.37
2023-03-16T12:31:14.997Z,1.08
2023-03-16T12:33:54.201Z,0.63
2023-03-16T12:36:48.151Z,0.63
2023-03-16T12:39:18.583Z,0.60
2023-03-16T12:41:52.533Z,0.70
2023-03-16T12:44:22.036Z,0.50
2023-03-16T12:46:57.730Z,0.57
2023-03-16T12:49:26.449Z,0.65
2023-03-16T12:52:00.695Z,0.65
2023-03-16T12:54:28.555Z,0.80
2023-03-16T12:57:02.119Z,0.52
2023-03-16T12:59:38.235Z,0.60
2023-03-16T13:02:11.680Z,0.60
2023-03-16T13:04:41.595Z,0.90
2023-03-16T13:07:12.021Z,0.80
2023-03-16T13:09:43.913Z,0.50
2023-03-16T13:12:22.535Z,0.73
2023-03-16T13:14:54.686Z,0.73
2023-03-16T13:17:31.828Z,0.65
2023-03-16T13:20:00.971Z,0.70
2023-03-16T13:22:29.443Z,0.40
2023-03-16T13:25:00.742Z,0.50
2023-03-16T13:27:29.644Z,0.65
2023-03-16T13:29:58.543Z,0.70
2023-03-16T13:32:31.426Z,0.87
2023-03-16T13:34:59.640Z,1.10
2023-03-16T13:37:29.378Z,0.85
2023-03-16T13:39:57.601Z,0.80
2023-03-16T13:42:27.774Z,0.98
2023-03-16T13:44:56.664Z,1.20
2023-03-16T13:47:26.540Z,0.60
2023-03-16T13:49:58.323Z,1.23
2023-03-16T13:52:30.834Z,0.90
2023-03-16T13:54:59.936Z,1.08
2023-03-16T13:57:32.181Z,1.02
2023-03-16T14:00:06.005Z,1.13
2023-03-16T14:02:38.119Z,1.00
2023-03-16T14:05:20.185Z,1.10
2023-03-16T14:07:49.608Z,1.52
2023-03-16T14:10:17.677Z,1.15
2023-03-16T14:12:51.858Z,0.88
2023-03-16T14:15:20.050Z,1.17
2023-03-16T14:17:47.979Z,1.27
2023-03-16T14:20:20.549Z,1.00
2023-03-16T14:22:48.781Z,1.00
2023-03-16T14:25:22.224Z,1.10
2023-03-16T14:27:58.308Z,1.17
2023-03-16T14:30:27.986Z,0.90
2023-03-16T14:32:56.605Z,1.00
2023-03-16T14:35:27.756Z,1.13
2023-03-16T14:37:56.753Z,2.13
2023-03-16T14:40:29.611Z,1.52
2023-03-16T14:42:58.851Z,1.30
2023-03-16T14:45:29.054Z,0.95
2023-03-16T14:48:02.257Z,1.80
2023-03-16T14:50:33.476Z,1.23
2023-03-16T14:53:01.829Z,1.23
2023-03-16T14:55:29.674Z,1.57
2023-03-16T14:57:57.614Z,1.60
2023-03-16T15:00:25.451Z,1.20
2023-03-16T15:03:00.039Z,1.95
2023-03-16T15:05:34.018Z,2.03
2023-03-16T15:08:03.804Z,1.30
2023-03-16T15:10:32.955Z,0.98
2023-03-16T15:13:12.923Z,1.50
2023-03-16T15:15:42.487Z,1.88
2023-03-16T15:18:10.063Z,1.70
2023-03-16T15:20:43.876Z,1.60
2023-03-16T15:23:14.225Z,1.20
2023-03-16T15:25:42.490Z,1.80
2023-03-16T15:28:12.707Z,1.40
2023-03-16T15:30:40.381Z,1.95
2023-03-16T15:33:09.536Z,1.60
2023-03-16T15:35:37.587Z,1.73
2023-03-16T15:38:08.691Z,1.70
2023-03-16T15:40:36.576Z,1.83
2023-03-16T15:43:05.152Z,1.80
2023-03-16T15:45:34.072Z,1.97
2023-03-16T15:48:24.755Z,1.82
2023-03-16T15:50:53.574Z,1.40
2023-03-16T15:53:30.873Z,1.33
2023-03-16T15:56:02.875Z,1.98
2023-03-16T15:58:31.695Z,1.75
2023-03-16T16:01:00.201Z,1.65
2023-03-16T16:03:28.494Z,2.05
2023-03-16T16:05:56.718Z,1.57
2023-03-16T16:08:25.678Z,2.08
2023-03-16T16:10:53.593Z,2.30
2023-03-16T16:13:24.822Z,1.83
2023-03-16T16:15:56.213Z,1.70
2023-03-16T16:18:30.443Z,2.20
2023-03-16T16:20:59.203Z,1.75
2023-03-16T16:23:28.053Z,1.90
2023-03-16T16:25:56.788Z,1.88
2023-03-16T16:28:27.062Z,2.33
2023-03-16T16:30:54.834Z,2.20
2023-03-16T16:33:24.201Z,2.33
2023-03-16T16:36:01.411Z,2.33
2023-03-16T16:38:30.730Z,2.20
2023-03-16T16:41:00.614Z,2.67
2023-03-16T16:43:31.484Z,2.07
2023-03-16T16:45:59.902Z,3.33
2023-03-16T16:48:31.682Z,2.60
2023-03-16T16:50:59.838Z,2.78
2023-03-16T16:53:27.586Z,2.13
2023-03-16T16:55:57.039Z,3.37
2023-03-16T16:58:25.204Z,2.30
2023-03-16T17:00:53.825Z,2.78
2023-03-16T17:03:22.924Z,2.35
2023-03-16T17:05:53.089Z,2.78
2023-03-16T17:08:20.912Z,2.87
2023-03-16T17:10:48.851Z,2.70
2023-03-16T17:13:24.867Z,2.70
2023-03-16T17:15:54.470Z,2.30
2023-03-16T17:18:22.879Z,2.35
2023-03-16T17:20:50.748Z,2.70
2023-03-16T17:23:26.442Z,2.63
2023-03-16T17:25:54.266Z,2.40
2023-03-16T17:28:23.634Z,2.40
2023-03-16T17:30:52.552Z,2.88
2023-03-16T17:33:21.236Z,2.47
2023-03-16T17:35:49.396Z,2.80
2023-03-16T17:38:21.261Z,2.15
2023-03-16T17:40:49.928Z,2.38
2023-03-16T17:43:18.414Z,2.30
2023-03-16T17:45:47.765Z,2.60
2023-03-16T17:48:16.585Z,2.70
2023-03-16T17:50:46.034Z,2.60
2023-03-16T17:53:13.855Z,2.42
2023-03-16T17:55:42.375Z,2.30
2023-03-16T17:58:20.791Z,2.30
2023-03-16T18:00:49.788Z,2.65
2023-03-16T18:03:18.006Z,2.60
2023-03-16T18:05:46.212Z,2.53
2023-03-16T18:08:15.922Z,2.22
2023-03-16T18:10:43.728Z,2.60
2023-03-16T18:13:17.845Z,2.00
2023-03-16T18:15:46.775Z,2.20
2023-03-16T18:18:21.405Z,2.28
2023-03-16T18:20:50.808Z,2.17
2023-03-16T18:23:19.367Z,2.10
2023-03-16T18:25:47.610Z,2.63
2023-03-16T18:28:15.775Z,2.55
2023-03-16T18:30:44.374Z,3.33
2023-03-16T18:33:18.619Z,2.53
2023-03-16T18:35:47.642Z,2.33
2023-03-16T18:38:17.936Z,2.60
2023-03-16T18:40:52.359Z,2.50
2023-03-16T18:43:19.964Z,2.90
2023-03-16T18:45:47.908Z,3.20
2023-03-16T18:48:20.918Z,2.50
2023-03-16T18:50:49.973Z,3.20
2023-03-16T18:53:18.149Z,2.70
2023-03-16T18:55:45.943Z,3.15
2023-03-16T18:58:17.716Z,2.78
2023-03-16T19:00:47.514Z,2.50
2023-03-16T19:03:19.926Z,2.40
2023-03-16T19:05:47.682Z,2.67
2023-03-16T19:08:17.229Z,2.85
2023-03-16T19:10:46.988Z,2.13
2023-03-16T19:13:17.169Z,3.17
2023-03-16T19:15:44.848Z,2.33
2023-03-16T19:18:12.625Z,2.10
2023-03-16T19:20:42.412Z,2.40
2023-03-16T19:23:15.491Z,2.92
2023-03-16T19:25:45.420Z,2.35
2023-03-16T19:28:14.657Z,3.90
2023-03-16T19:30:42.492Z,4.97
2023-03-16T19:33:17.171Z,5.57
2023-03-16T19:35:51.468Z,3.17
2023-03-16T19:38:20.441Z,2.22
2023-03-16T19:40:51.754Z,2.10
2023-03-16T19:43:19.764Z,2.85
2023-03-16T19:45:48.068Z,2.53
2023-03-16T19:48:20.359Z,1.98
2023-03-16T19:50:49.090Z,2.75
2023-03-16T19:53:18.335Z,1.90
2023-03-16T19:55:47.579Z,2.80
2023-03-16T19:58:21.488Z,2.50
2023-03-16T20:00:49.351Z,3.25
2023-03-16T20:03:17.452Z,2.95
2023-03-16T20:05:45.148Z,2.93
2023-03-16T20:08:20.569Z,2.58
2023-03-16T20:10:48.537Z,3.00
2023-03-16T20:13:16.099Z,2.22
2023-03-16T20:15:45.260Z,2.67
2023-03-16T20:18:14.453Z,2.60
2023-03-16T20:20:46.149Z,3.22
2023-03-16T20:23:21.295Z,3.05
2023-03-16T20:25:49.374Z,2.30
2023-03-16T20:28:21.253Z,3.00
2023-03-16T20:30:50.800Z,2.97
2023-03-16T20:33:19.986Z,2.53
2023-03-16T20:35:49.447Z,3.60
2023-03-16T20:38:17.877Z,3.80
2023-03-16T20:40:47.696Z,4.15
2023-03-16T20:43:22.527Z,2.25
2023-03-16T20:45:51.793Z,4.28
2023-03-16T20:48:20.195Z,2.50
2023-03-16T20:50:48.275Z,3.83
2023-03-16T20:53:15.877Z,3.33
2023-03-16T20:55:43.585Z,3.80
2023-03-16T20:58:18.695Z,3.35
2023-03-16T21:00:46.708Z,3.37
2023-03-16T21:03:17.954Z,3.67
2023-03-16T21:05:46.367Z,3.90
2023-03-16T21:08:14.116Z,3.80
2023-03-16T21:10:42.538Z,4.35
2023-03-16T21:13:14.858Z,3.57
2023-03-16T21:15:42.550Z,4.07
2023-03-16T21:18:14.228Z,4.35
2023-03-16T21:20:52.157Z,3.65
2023-03-16T21:23:21.150Z,4.40
2023-03-16T21:25:49.749Z,3.93
2023-03-16T21:28:19.606Z,3.50
2023-03-16T21:30:47.880Z,4.05
2023-03-16T21:33:20.872Z,3.83
2023-03-16T21:35:51.351Z,3.70
2023-03-16T21:38:21.689Z,3.07
2023-03-16T21:40:49.394Z,3.50
2023-03-16T21:43:17.411Z,3.20
2023-03-16T21:45:46.119Z,3.30
2023-03-16T21:48:15.501Z,3.70
2023-03-16T21:50:44.061Z,2.90
2023-03-16T21:53:20.416Z,3.10
2023-03-16T21:55:48.306Z,3.15
2023-03-16T21:58:17.126Z,3.40
2023-03-16T22:00:45.147Z,3.20
2023-03-16T22:03:23.038Z,2.73
2023-03-16T22:05:50.777Z,2.75
2023-03-16T22:08:21.330Z,3.15
2023-03-16T22:10:48.936Z,2.80
2023-03-16T22:13:19.359Z,2.70
2023-03-16T22:15:49.551Z,2.40
2023-03-16T22:18:26.663Z,2.33
2023-03-16T22:20:54.660Z,2.72
2023-03-16T22:23:30.974Z,2.50
2023-03-16T22:25:58.950Z,2.15
2023-03-16T22:28:27.070Z,2.53
2023-03-16T22:30:55.408Z,2.10
2023-03-16T22:33:26.646Z,2.50
2023-03-16T22:35:56.807Z,2.63
2023-03-16T22:38:29.318Z,2.47
2023-03-16T22:40:58.516Z,2.40
2023-03-16T22:43:30.641Z,2.85
2023-03-16T22:46:02.787Z,2.78
2023-03-16T22:48:31.216Z,2.15
2023-03-16T22:51:00.060Z,2.25
2023-03-16T22:53:30.176Z,2.13
2023-03-16T22:55:59.399Z,2.40
2023-03-16T22:58:30.933Z,2.35
2023-03-16T23:00:58.751Z,2.38
2023-03-16T23:03:26.347Z,2.20
2023-03-16T23:05:53.848Z,1.93
2023-03-16T23:08:22.823Z,2.10
2023-03-16T23:10:51.543Z,2.47
2023-03-16T23:13:22.026Z,1.88
2023-03-16T23:15:50.509Z,2.33
2023-03-16T23:18:18.796Z,1.87
2023-03-16T23:20:46.765Z,2.15
2023-03-16T23:23:14.672Z,2.05
2023-03-16T23:25:42.899Z,2.08
2023-03-16T23:28:12.778Z,2.30
2023-03-16T23:30:41.979Z,2.47
2023-03-16T23:33:11.232Z,2.25
2023-03-16T23:35:38.849Z,2.40
2023-03-16T23:38:06.926Z,2.00
2023-03-16T23:40:37.149Z,2.45
2023-03-16T23:43:05.554Z,2.60
2023-03-16T23:45:34.689Z,2.10
2023-03-16T23:48:07.266Z,2.15
2023-03-16T23:50:36.702Z,2.88
2023-03-16T23:53:04.624Z,2.50
2023-03-16T23:55:32.153Z,2.90
2023-03-16T23:57:59.768Z,2.55
